createdAt,value
2022-12-22T00:02:46.922Z,-2.29
2022-12-22T00:05:39.093Z,-2.24
2022-12-22T00:08:29.840Z,-2.18
2022-12-22T00:11:20.670Z,-2.23
2022-12-22T00:14:10.322Z,-2.25
2022-12-22T00:16:59.874Z,-2.28
2022-12-22T00:19:49.651Z,-2.31
2022-12-22T00:22:41.474Z,-2.26
2022-12-22T00:25:33.752Z,-2.19
2022-12-22T00:28:30.588Z,-2.15
2022-12-22T00:31:20.360Z,-2.23
2022-12-22T00:34:10.178Z,-2.29
2022-12-22T00:36:59.837Z,-2.28
2022-12-22T00:39:49.421Z,-2.38
2022-12-22T00:42:38.947Z,-2.41
2022-12-22T00:45:29.874Z,-2.39
2022-12-22T00:48:20.045Z,-2.36
2022-12-22T00:51:09.774Z,-2.33
2022-12-22T00:53:59.325Z,-2.28
2022-12-22T00:56:48.954Z,-2.28
2022-12-22T00:59:39.168Z,-2.36
2022-12-22T01:02:28.859Z,-2.44
2022-12-22T01:05:18.566Z,-2.34
2022-12-22T01:08:08.129Z,-2.41
2022-12-22T01:10:57.991Z,-2.45
2022-12-22T01:13:48.783Z,-2.49
2022-12-22T01:16:38.456Z,-2.51
2022-12-22T01:19:28.336Z,-2.47
2022-12-22T01:22:18.185Z,-2.45
2022-12-22T01:25:07.826Z,-2.40
2022-12-22T01:27:57.382Z,-2.45
2022-12-22T01:30:46.948Z,-2.57
2022-12-22T01:33:36.580Z,-2.57
2022-12-22T01:36:26.736Z,-2.55
2022-12-22T01:39:16.541Z,-2.55
2022-12-22T01:42:07.422Z,-2.58
2022-12-22T01:44:57.216Z,-2.60
2022-12-22T01:47:54.018Z,-2.71
2022-12-22T01:50:48.117Z,-2.60
2022-12-22T01:53:41.753Z,-2.58
2022-12-22T01:56:31.537Z,-2.57
2022-12-22T01:59:22.713Z,-2.51
2022-12-22T02:02:12.303Z,-2.53
2022-12-22T02:05:06.752Z,-2.60
2022-12-22T02:08:20.829Z,-2.70
2022-12-22T02:11:30.353Z,-2.70
2022-12-22T02:14:35.602Z,-2.73
2022-12-22T02:17:35.476Z,-2.73
2022-12-22T02:20:50.050Z,-2.69
2022-12-22T02:23:54.554Z,-2.64
2022-12-22T02:26:50.531Z,-2.66
2022-12-22T02:29:44.814Z,-2.64
2022-12-22T02:32:35.940Z,-2.59
2022-12-22T02:35:32.637Z,-2.56
2022-12-22T02:38:31.566Z,-2.58
2022-12-22T02:41:33.801Z,-2.63
2022-12-22T02:44:41.920Z,-2.66
2022-12-22T02:47:37.948Z,-2.65
2022-12-22T02:50:34.536Z,-2.69
2022-12-22T02:53:27.354Z,-2.69
2022-12-22T02:56:23.229Z,-2.80
2022-12-22T02:59:13.453Z,-2.77
2022-12-22T03:02:05.838Z,-2.74
2022-12-22T03:04:56.101Z,-2.76
2022-12-22T03:07:45.865Z,-2.79
2022-12-22T03:10:35.441Z,-2.78
2022-12-22T03:13:24.936Z,-2.74
2022-12-22T03:16:14.577Z,-2.67
2022-12-22T03:19:04.204Z,-2.60
2022-12-22T03:21:53.609Z,-2.50
2022-12-22T03:24:43.494Z,-2.48
2022-12-22T03:27:15.673Z,-2.51
2022-12-22T03:29:47.937Z,-2.54
2022-12-22T03:32:20.481Z,-2.62
2022-12-22T03:34:52.621Z,-2.71
2022-12-22T03:37:24.786Z,-2.69
2022-12-22T03:39:56.977Z,-2.63
2022-12-22T03:42:46.530Z,-2.63
2022-12-22T03:45:36.184Z,-2.68
2022-12-22T03:48:08.817Z,-2.72
2022-12-22T03:50:41.008Z,-2.80
2022-12-22T03:53:13.181Z,-2.81
2022-12-22T03:55:45.437Z,-2.78
2022-12-22T03:58:17.598Z,-2.75
2022-12-22T04:00:49.890Z,-2.72
2022-12-22T04:03:22.211Z,-2.68
2022-12-22T04:05:54.425Z,-2.65
2022-12-22T04:08:26.565Z,-2.62
2022-12-22T04:11:16.397Z,-2.55
2022-12-22T04:13:48.590Z,-2.47
2022-12-22T04:16:20.844Z,-2.49
2022-12-22T04:18:53.125Z,-2.54
2022-12-22T04:21:25.305Z,-2.55
2022-12-22T04:23:57.545Z,-2.59
2022-12-22T04:26:29.873Z,-2.68
2022-12-22T04:29:02.116Z,-2.64
2022-12-22T04:31:34.489Z,-2.60
2022-12-22T04:34:06.860Z,-2.53
2022-12-22T04:36:39.399Z,-2.50
2022-12-22T04:39:11.683Z,-2.55
2022-12-22T04:41:44.771Z,-2.59
2022-12-22T04:44:17.047Z,-2.60
2022-12-22T04:46:49.237Z,-2.56
2022-12-22T04:49:21.401Z,-2.55
2022-12-22T04:51:53.659Z,-2.57
2022-12-22T04:54:25.788Z,-2.60
2022-12-22T04:56:57.989Z,-2.65
2022-12-22T04:59:30.264Z,-2.62
2022-12-22T05:02:02.555Z,-2.61
2022-12-22T05:04:34.865Z,-2.58
2022-12-22T05:07:07.929Z,-2.55
2022-12-22T05:09:40.263Z,-2.52
2022-12-22T05:12:29.940Z,-2.51
2022-12-22T05:15:02.237Z,-2.49
2022-12-22T05:17:34.410Z,-2.54
2022-12-22T05:20:07.791Z,-2.61
2022-12-22T05:22:40.142Z,-2.67
2022-12-22T05:25:16.610Z,-2.68
2022-12-22T05:27:51.135Z,-2.70
2022-12-22T05:30:23.710Z,-2.67
2022-12-22T05:32:56.030Z,-2.61
2022-12-22T05:35:28.276Z,-2.64
2022-12-22T05:38:00.563Z,-2.66
2022-12-22T05:40:32.884Z,-2.69
2022-12-22T05:43:05.888Z,-2.73
2022-12-22T05:45:38.396Z,-2.74
2022-12-22T05:48:10.660Z,-2.77
2022-12-22T05:50:42.830Z,-2.73
2022-12-22T05:53:15.283Z,-2.62
2022-12-22T05:55:47.490Z,-2.60
2022-12-22T05:58:19.762Z,-2.58
2022-12-22T06:00:52.040Z,-2.62
2022-12-22T06:03:24.387Z,-2.67
2022-12-22T06:05:56.946Z,-2.70
2022-12-22T06:08:29.681Z,-2.68
2022-12-22T06:11:01.966Z,-2.65
2022-12-22T06:13:34.217Z,-2.62
2022-12-22T06:16:07.303Z,-2.63
2022-12-22T06:18:39.537Z,-2.66
2022-12-22T06:21:11.702Z,-2.74
2022-12-22T06:23:43.952Z,-2.77
2022-12-22T06:26:16.093Z,-2.84
2022-12-22T06:28:49.233Z,-2.84
2022-12-22T06:31:21.593Z,-2.84
2022-12-22T06:33:53.978Z,-2.84
2022-12-22T06:36:26.165Z,-2.73
2022-12-22T06:38:58.325Z,-2.62
2022-12-22T06:41:48.437Z,-2.60
2022-12-22T06:44:20.757Z,-2.51
2022-12-22T06:46:53.179Z,-2.46
2022-12-22T06:49:26.031Z,-2.47
2022-12-22T06:51:58.301Z,-2.47
2022-12-22T06:54:30.589Z,-2.45
2022-12-22T06:57:02.807Z,-2.43
2022-12-22T06:59:34.986Z,-2.38
2022-12-22T07:02:07.850Z,-2.33
2022-12-22T07:04:40.190Z,-2.35
2022-12-22T07:07:12.514Z,-2.44
2022-12-22T07:09:44.796Z,-2.46
2022-12-22T07:12:17.002Z,-2.45
2022-12-22T07:14:49.185Z,-2.47
2022-12-22T07:17:21.513Z,-2.42
2022-12-22T07:19:53.701Z,-2.40
2022-12-22T07:22:30.458Z,-2.28
2022-12-22T07:25:03.277Z,-2.18
2022-12-22T07:27:35.447Z,-2.19
2022-12-22T07:30:09.237Z,-2.12
2022-12-22T07:32:41.413Z,-2.00
2022-12-22T07:35:13.754Z,-1.90
2022-12-22T07:37:46.077Z,-1.88
2022-12-22T07:40:18.568Z,-2.07
2022-12-22T07:42:50.768Z,-1.97
2022-12-22T07:45:23.032Z,-1.95
2022-12-22T07:48:00.160Z,-1.99
2022-12-22T07:50:33.057Z,-2.16
2022-12-22T07:53:06.403Z,-2.24
2022-12-22T07:55:39.872Z,-2.26
2022-12-22T07:58:12.170Z,-2.43
2022-12-22T08:00:44.460Z,-2.47
2022-12-22T08:03:16.658Z,-2.52
2022-12-22T08:05:49.061Z,-2.53
2022-12-22T08:08:21.205Z,-2.54
2022-12-22T08:10:53.349Z,-2.55
2022-12-22T08:13:25.957Z,-2.52
2022-12-22T08:16:03.934Z,-2.48
2022-12-22T08:18:37.293Z,-2.53
2022-12-22T08:21:10.349Z,-2.47
2022-12-22T08:23:42.929Z,-2.43
2022-12-22T08:26:19.644Z,-2.38
2022-12-22T08:28:55.689Z,-2.33
2022-12-22T08:31:30.607Z,-2.27
2022-12-22T08:34:07.238Z,-2.20
2022-12-22T08:36:43.344Z,-2.16
2022-12-22T08:39:16.273Z,-2.06
2022-12-22T08:41:51.455Z,-1.97
2022-12-22T08:44:25.882Z,-1.87
2022-12-22T08:47:00.457Z,-1.80
2022-12-22T08:49:33.187Z,-1.83
2022-12-22T08:52:05.717Z,-1.84
2022-12-22T08:54:37.993Z,-1.84
2022-12-22T08:57:10.309Z,-1.76
2022-12-22T08:59:42.634Z,-1.67
2022-12-22T09:02:15.103Z,-1.56
2022-12-22T09:04:47.327Z,-1.55
2022-12-22T09:07:19.579Z,-1.60
2022-12-22T09:09:52.003Z,-1.56
2022-12-22T09:12:24.421Z,-1.56
2022-12-22T09:14:57.096Z,-1.57
2022-12-22T09:17:29.521Z,-1.60
2022-12-22T09:20:01.793Z,-1.51
2022-12-22T09:22:34.183Z,-1.44
2022-12-22T09:25:07.310Z,-1.32
2022-12-22T09:27:39.661Z,-1.26
2022-12-22T09:30:14.093Z,-1.23
2022-12-22T09:32:46.307Z,-1.25
2022-12-22T09:35:18.733Z,-1.34
2022-12-22T09:37:51.722Z,-1.36
2022-12-22T09:40:24.835Z,-1.32
2022-12-22T09:42:57.083Z,-1.24
2022-12-22T09:45:29.404Z,-1.20
2022-12-22T09:48:02.384Z,-1.19
2022-12-22T09:50:36.066Z,-1.26
2022-12-22T09:53:14.426Z,-1.29
2022-12-22T09:55:49.085Z,-1.28
2022-12-22T09:58:26.612Z,-1.24
2022-12-22T10:01:09.703Z,-1.26
2022-12-22T10:03:52.746Z,-1.28
2022-12-22T10:06:35.753Z,-1.27
2022-12-22T10:09:46.236Z,-1.24
2022-12-22T10:12:14.649Z,-1.25
2022-12-22T10:14:49.874Z,-1.19
2022-12-22T10:17:28.164Z,-1.10
2022-12-22T10:20:26.538Z,-1.02
2022-12-22T10:23:00.869Z,-0.92
2022-12-22T10:26:26.263Z,-0.86
2022-12-22T10:28:36.273Z,-0.84
2022-12-22T10:31:20.149Z,-0.79
2022-12-22T10:33:55.117Z,-0.75
2022-12-22T10:36:31.748Z,-0.65
2022-12-22T10:39:06.989Z,-0.52
2022-12-22T10:41:43.255Z,-0.37
2022-12-22T10:44:25.496Z,-0.30
2022-12-22T10:46:59.381Z,-0.31
2022-12-22T10:52:21.335Z,-0.41
2022-12-22T10:55:18.103Z,-0.37
2022-12-22T10:57:51.130Z,-0.42
2022-12-22T11:00:29.970Z,-0.52
2022-12-22T11:03:04.672Z,-0.48
2022-12-22T11:05:37.726Z,-0.49
2022-12-22T11:08:19.792Z,-0.49
2022-12-22T11:10:56.895Z,-0.44
2022-12-22T11:13:49.159Z,-0.40
2022-12-22T11:16:27.270Z,-0.40
2022-12-22T11:19:17.768Z,-0.47
2022-12-22T11:21:57.360Z,-0.39
2022-12-22T11:24:39.868Z,-0.40
2022-12-22T11:27:27.988Z,-0.40
2022-12-22T11:30:12.044Z,-0.39
2022-12-22T11:33:13.154Z,-0.40
2022-12-22T11:35:57.960Z,-0.28
2022-12-22T11:38:47.003Z,-0.11
2022-12-22T11:41:34.547Z,0.01
2022-12-22T11:44:30.573Z,-0.05
2022-12-22T11:47:12.985Z,-0.00
2022-12-22T11:50:00.210Z,-0.12
2022-12-22T11:53:05.717Z,-0.12
2022-12-22T11:55:40.210Z,-0.10
2022-12-22T11:58:31.080Z,-0.07
2022-12-22T12:01:26.133Z,-0.01
2022-12-22T12:04:23.457Z,0.03
2022-12-22T12:07:27.190Z,0.10
2022-12-22T12:10:14.875Z,0.13
2022-12-22T12:12:55.365Z,0.12
2022-12-22T12:15:38.122Z,0.04
2022-12-22T12:18:43.338Z,0.00
2022-12-22T12:21:28.365Z,0.01
2022-12-22T12:24:25.322Z,-0.01
2022-12-22T12:27:00.868Z,-0.04
2022-12-22T12:29:39.582Z,-0.14
2022-12-22T12:32:17.819Z,-0.36
2022-12-22T12:34:58.979Z,-0.33
2022-12-22T12:37:38.013Z,-0.35
2022-12-22T12:40:31.772Z,-0.42
2022-12-22T12:43:06.766Z,-0.35
2022-12-22T12:45:42.798Z,-0.22
2022-12-22T12:48:40.974Z,-0.09
2022-12-22T12:51:43.423Z,0.05
2022-12-22T12:54:48.253Z,0.17
2022-12-22T12:57:46.236Z,0.33
2022-12-22T14:21:58.474Z,0.23
2022-12-22T14:24:36.184Z,0.20
2022-12-22T14:27:15.174Z,0.19
2022-12-22T14:29:45.086Z,0.16
2022-12-22T14:32:34.882Z,0.14
2022-12-22T14:35:04.674Z,0.17
2022-12-22T14:37:33.677Z,0.17
2022-12-22T14:40:02.561Z,0.13
2022-12-22T14:42:33.690Z,0.10
2022-12-22T14:45:02.557Z,0.10
2022-12-22T14:47:36.380Z,0.08
2022-12-22T14:50:16.813Z,0.02
2022-12-22T14:52:48.814Z,-0.04
2022-12-22T14:55:27.868Z,-0.11
2022-12-22T14:58:00.442Z,-0.15
2022-12-22T15:00:34.291Z,-0.18
2022-12-22T15:03:06.822Z,-0.25
2022-12-22T15:05:38.596Z,-0.31
2022-12-22T15:08:22.211Z,-0.32
2022-12-22T15:10:51.139Z,-0.34
2022-12-22T15:13:23.475Z,-0.34
2022-12-22T15:15:53.362Z,-0.34
2022-12-22T15:18:25.568Z,-0.29
2022-12-22T15:20:55.895Z,-0.27
2022-12-22T15:23:24.809Z,-0.20
2022-12-22T15:25:53.635Z,-0.14
2022-12-22T15:28:22.593Z,-0.15
2022-12-22T15:30:52.348Z,-0.18
2022-12-22T15:33:21.434Z,-0.20
2022-12-22T15:35:50.336Z,-0.20
2022-12-22T15:38:22.002Z,-0.16
2022-12-22T15:40:51.687Z,-0.17
2022-12-22T15:43:55.903Z,-0.22
2022-12-22T15:46:14.682Z,-0.26
2022-12-22T15:48:44.933Z,-0.26
2022-12-22T15:51:20.255Z,-0.25
2022-12-22T15:53:49.654Z,-0.30
2022-12-22T15:56:20.980Z,-0.31
2022-12-22T15:58:50.235Z,-0.27
2022-12-22T16:01:19.190Z,-0.21
2022-12-22T16:03:48.243Z,-0.14
2022-12-22T16:06:19.441Z,-0.17
2022-12-22T16:08:51.391Z,-0.17
2022-12-22T16:11:20.491Z,-0.18
2022-12-22T16:13:50.693Z,-0.14
2022-12-22T16:16:19.736Z,-0.08
2022-12-22T16:18:48.730Z,-0.03
2022-12-22T16:21:20.368Z,0.05
2022-12-22T16:23:50.746Z,0.11
2022-12-22T16:26:21.904Z,0.09
2022-12-22T16:28:50.880Z,0.08
2022-12-22T16:31:22.029Z,0.12
2022-12-22T16:33:51.864Z,0.12
2022-12-22T16:36:41.478Z,0.10
2022-12-22T16:39:10.336Z,0.13
2022-12-22T16:41:40.442Z,0.13
2022-12-22T16:46:57.594Z,0.10
2022-12-22T16:49:27.156Z,0.10
2022-12-22T16:51:56.308Z,0.01
2022-12-22T16:54:25.480Z,-0.05
2022-12-22T16:56:54.377Z,-0.11
2022-12-22T16:59:25.102Z,-0.05
2022-12-22T17:01:56.370Z,0.05
2022-12-22T17:04:28.535Z,-0.00
2022-12-22T17:06:59.441Z,-0.03
2022-12-22T17:09:32.454Z,0.05
2022-12-22T17:12:01.594Z,0.02
2022-12-22T17:14:34.163Z,0.03
2022-12-22T17:17:03.374Z,-0.01
2022-12-22T17:19:32.379Z,-0.01
2022-12-22T17:22:01.600Z,-0.02
2022-12-22T17:24:30.614Z,-0.06
2022-12-22T17:27:03.741Z,-0.13
2022-12-22T17:29:34.534Z,-0.22
2022-12-22T17:32:03.536Z,-0.28
2022-12-22T17:34:32.602Z,-0.32
2022-12-22T17:37:01.553Z,-0.36
2022-12-22T17:39:32.157Z,-0.36
2022-12-22T17:42:01.042Z,-0.39
2022-12-22T17:44:29.941Z,-0.47
2022-12-22T17:46:58.940Z,-0.55
2022-12-22T17:49:28.074Z,-0.57
2022-12-22T17:51:58.184Z,-0.54
2022-12-22T17:54:30.922Z,-0.51
2022-12-22T17:57:02.892Z,-0.50
2022-12-22T17:59:32.288Z,-0.51
2022-12-22T18:02:01.500Z,-0.54
2022-12-22T18:04:30.712Z,-0.55
2022-12-22T18:06:59.927Z,-0.51
2022-12-22T18:09:28.834Z,-0.46
2022-12-22T18:11:58.920Z,-0.44
2022-12-22T18:14:27.887Z,-0.45
2022-12-22T18:16:56.850Z,-0.43
2022-12-22T18:19:25.819Z,-0.42
2022-12-22T18:21:54.676Z,-0.37
2022-12-22T18:24:23.633Z,-0.32
2022-12-22T18:26:52.498Z,-0.30
2022-12-22T18:29:22.762Z,-0.34
2022-12-22T18:31:51.883Z,-0.45
2022-12-22T18:34:20.939Z,-0.52
2022-12-22T18:36:50.538Z,-0.58
2022-12-22T18:39:19.822Z,-0.61
2022-12-22T18:41:48.838Z,-0.70
2022-12-22T18:44:19.138Z,-0.72
2022-12-22T18:46:54.347Z,-0.74
2022-12-22T18:49:24.685Z,-0.64
2022-12-22T18:51:53.573Z,-0.53
2022-12-22T18:54:28.811Z,-0.43
2022-12-22T18:57:00.244Z,-0.35
2022-12-22T18:59:32.957Z,-0.31
2022-12-22T19:02:15.890Z,-0.29
2022-12-22T19:04:44.831Z,-0.23
2022-12-22T19:07:16.162Z,-0.23
2022-12-22T19:09:45.339Z,-0.33
2022-12-22T19:12:16.114Z,-0.39
2022-12-22T19:14:51.444Z,-0.40
2022-12-22T19:17:24.075Z,-0.42
2022-12-22T19:19:52.996Z,-0.55
2022-12-22T19:22:22.117Z,-0.65
2022-12-22T19:24:52.153Z,-0.67
2022-12-22T19:27:24.257Z,-0.74
2022-12-22T19:30:03.174Z,-0.79
2022-12-22T19:32:45.489Z,-0.75
2022-12-22T19:35:17.939Z,-0.66
2022-12-22T19:37:48.195Z,-0.64
2022-12-22T19:40:18.551Z,-0.56
2022-12-22T19:42:53.309Z,-0.48
2022-12-22T19:45:27.038Z,-0.38
2022-12-22T19:47:57.320Z,-0.25
2022-12-22T19:50:28.382Z,-0.15
2022-12-22T19:52:59.023Z,-0.06
2022-12-22T19:55:35.204Z,0.00
2022-12-22T19:58:04.424Z,0.09
2022-12-22T20:00:34.650Z,0.05
2022-12-22T20:03:06.304Z,-0.10
2022-12-22T20:05:36.306Z,-0.21
2022-12-22T20:08:07.960Z,-0.26
2022-12-22T20:10:38.700Z,-0.28
2022-12-22T20:13:16.062Z,-0.37
2022-12-22T20:15:46.008Z,-0.45
2022-12-22T20:18:19.386Z,-0.48
2022-12-22T20:20:57.618Z,-0.52
2022-12-22T20:23:29.274Z,-0.59
2022-12-22T20:26:02.680Z,-0.67
2022-12-22T20:28:33.892Z,-0.70
2022-12-22T20:31:03.568Z,-0.72
2022-12-22T20:33:34.993Z,-0.73
2022-12-22T20:36:11.999Z,-0.72
2022-12-22T20:38:43.657Z,-0.64
2022-12-22T20:41:12.549Z,-0.57
2022-12-22T20:43:41.837Z,-0.49
2022-12-22T20:46:16.506Z,-0.42
2022-12-22T20:48:48.597Z,-0.39
2022-12-22T20:51:22.003Z,-0.32
2022-12-22T20:53:51.753Z,-0.28
2022-12-22T20:56:24.334Z,-0.21
2022-12-22T20:58:53.742Z,-0.12
2022-12-22T21:01:23.481Z,-0.01
2022-12-22T21:03:55.523Z,0.07
2022-12-22T21:06:27.471Z,0.09
2022-12-22T21:08:58.845Z,-0.01
2022-12-22T21:11:29.460Z,-0.13
2022-12-22T21:13:58.989Z,-0.20
2022-12-22T21:16:31.219Z,-0.23
2022-12-22T21:19:05.548Z,-0.29
2022-12-22T21:21:34.773Z,-0.38
2022-12-22T21:24:05.882Z,-0.44
2022-12-22T21:26:38.482Z,-0.53
2022-12-22T21:29:13.075Z,-0.60
2022-12-22T21:31:44.092Z,-0.62
2022-12-22T21:34:13.152Z,-0.58
2022-12-22T21:36:45.133Z,-0.64
2022-12-22T21:39:22.552Z,-0.62
2022-12-22T21:42:00.537Z,-0.65
2022-12-22T21:44:30.959Z,-0.71
2022-12-22T21:47:00.763Z,-0.73
2022-12-22T21:49:32.024Z,-0.79
2022-12-22T21:52:01.195Z,-0.89
2022-12-22T21:54:30.074Z,-1.04
2022-12-22T21:56:58.956Z,-1.12
2022-12-22T21:59:27.918Z,-1.13
2022-12-22T22:01:56.984Z,-1.15
2022-12-22T22:04:26.127Z,-1.08
2022-12-22T22:06:54.963Z,-1.03
2022-12-22T22:09:23.785Z,-1.02
2022-12-22T22:12:11.101Z,-1.00
2022-12-22T22:14:40.127Z,-0.96
2022-12-22T22:17:10.694Z,-0.98
2022-12-22T22:19:39.530Z,-0.96
2022-12-22T22:22:09.486Z,-0.96
2022-12-22T22:24:38.429Z,-0.91
2022-12-22T22:27:07.289Z,-0.82
2022-12-22T22:29:36.183Z,-0.72
2022-12-22T22:32:05.836Z,-0.66
2022-12-22T22:34:34.688Z,-0.62
2022-12-22T22:37:03.574Z,-0.54
2022-12-22T22:39:32.496Z,-0.51
2022-12-22T22:42:01.456Z,-0.47
2022-12-22T22:44:30.409Z,-0.42
2022-12-22T22:46:59.468Z,-0.44
2022-12-22T22:49:28.949Z,-0.38
2022-12-22T22:51:58.150Z,-0.29
2022-12-22T22:54:26.957Z,-0.23
2022-12-22T22:56:55.789Z,-0.24
2022-12-22T22:59:24.642Z,-0.27
2022-12-22T23:01:53.545Z,-0.29
2022-12-22T23:04:22.520Z,-0.28
2022-12-22T23:06:51.454Z,-0.31
2022-12-22T23:09:20.337Z,-0.34
2022-12-22T23:11:51.964Z,-0.34
2022-12-22T23:14:21.348Z,-0.33
2022-12-22T23:16:50.565Z,-0.40
2022-12-22T23:19:19.880Z,-0.47
2022-12-22T23:21:48.997Z,-0.47
2022-12-22T23:24:17.893Z,-0.44
2022-12-22T23:26:46.812Z,-0.44
2022-12-22T23:29:15.656Z,-0.42
2022-12-22T23:31:44.637Z,-0.36
2022-12-22T23:34:14.089Z,-0.25
2022-12-22T23:36:42.927Z,-0.19
2022-12-22T23:39:13.234Z,-0.15
2022-12-22T23:41:42.174Z,-0.18
2022-12-22T23:44:11.180Z,-0.08
2022-12-22T23:46:40.756Z,-0.10
2022-12-22T23:49:12.096Z,-0.17
2022-12-22T23:51:40.969Z,-0.18
2022-12-22T23:54:09.814Z,-0.13
2022-12-22T23:56:38.777Z,-0.07
2022-12-22T23:59:08.093Z,-0.01
